Unicom:                    122.8

AWOS:                  118.275

Elevation           1458’ MSL

TPA:                   2500’ MSL

06/24:         5003’ L   75’ W

PAPI:       06/Left     24/Left

(Operate lights on unicom freq.)

Traffic Pattern: Left

Beacon: Sunset to Sunrise

Windsock: yes, lighted

Segmented Circle: No

 

Cleveland Center: 126.72/291.65

FSS: Altoona

[Source: ADDS]
METAR
KFKL 290256Z AUTO 13005KT 10SM OVC034 01/01 A3005 RMK AO2 SLP189 T00110011 50006 FZRANO =
KFKL 282321Z 2900/2924 00000KT P6SM OVC035 FM290300 00000KT P6SM OVC025 FM291400 15005KT P6SM OVC025 FM292000 15008KT P6SM SCT035 BKN250
TAF
KFKL 282321Z 2900/2924 00000KT P6SM OVC035 FM290300 00000KT P6SM OVC025 FM291400 15005KT P6SM OVC025 FM292000 15008KT P6SM SCT035 BKN250 =
[Source: ADDS]
METAR
KDUJ 290753Z AUTO 13004KT 10SM OVC030 02/M02 A3008 RMK AO2 SLP197 T00171022 =
KDUJ 290531Z 2906/3006 00000KT P6SM OVC025 FM291100 16006KT P6SM OVC015 FM291800 16008KT P6SM BKN025 FM292000 15008KT P6SM SCT035 BKN060
TAF
KDUJ 282030Z 2821/2918 30008KT P6SM OVC025 FM290500 24003KT P6SM BKN020 FM290900 14003KT P6SM BKN018 FM291600 15008KT P6SM BKN025 =

Economics.